sim
Sign-in with your pilot id or email,
or register
Callsign
Passwort

Schedule Details

Flight Number: DLH1981 (2)
Departure: Cologne Bonn Airport (EDDK) at 07:25
Arrival: Munich Airport (EDDM) at 08:30
Route: Lufthansa Passenger Schedule. Enter filed route here before submitting Pirep.

Weather Information
Getting current METAR information for EDDK 192250Z VRB02KT CAVOK 11/06 Q1017 NOSIG
Getting current METAR information for EDDM 192250Z VRB01KT CAVOK 09/08 Q1017 NOSIG

Schedule Frequency

Route Map